Hampton, New Hampshire
Current Conditions -  °F | °C
As of 11:58 PM on Wednesday 26 Nov 2014 (Local Time) from KPSM Reporting Station
Light Snow Light Snow  
Wind Chill: 21°   Ceiling: 700
Heat Index: 32°   Visibility: 1.5mi
Dew Point: 30°   Wind: 17mph
Humidity: 90%   Direction: 350°N
Pressure: 29.69"   Gusts: 29mph
Location:  42.94°N, 70.83°W
Report Text: KPSM 270458Z 35015G25KT 1 1/2SM -SNPL BR SCT003 BKN007 OVC016 00/M01 A2969 RMK FZRAE26SNB51 SLP058 P0001 T00021012 40069
Loading
Personal Weather Stations






























Interactive Weather Map New forecast layout! Learn more

10-Day Weather Forecast

Advertisements
Track Severe Weather on mobile